createdAt,value
2022-08-17T04:00:29.065Z,997.12
2022-08-17T04:01:29.078Z,997.19
2022-08-17T04:02:29.020Z,997.18
2022-08-17T04:03:28.999Z,997.16
2022-08-17T04:04:28.993Z,997.15
2022-08-17T04:05:28.977Z,997.24
2022-08-17T04:06:28.965Z,997.24
2022-08-17T04:07:28.971Z,997.33
2022-08-17T04:08:28.944Z,997.43
2022-08-17T04:09:28.936Z,997.55
2022-08-17T04:10:28.921Z,997.62
2022-08-17T04:11:33.934Z,997.65
2022-08-17T04:12:28.908Z,997.73
2022-08-17T04:13:28.895Z,997.80
2022-08-17T04:14:28.882Z,997.96
2022-08-17T04:15:28.869Z,998.02
2022-08-17T04:16:28.855Z,998.10
2022-08-17T04:17:28.860Z,998.06
2022-08-17T04:18:28.833Z,998.04
2022-08-17T04:19:28.823Z,997.96
2022-08-17T04:20:28.812Z,997.95
2022-08-17T04:21:28.800Z,997.91
2022-08-17T04:22:34.448Z,997.83
2022-08-17T04:23:28.787Z,997.84
2022-08-17T04:24:28.766Z,997.82
2022-08-17T04:25:28.755Z,997.86
2022-08-17T04:26:52.981Z,997.88
2022-08-17T04:27:29.743Z,998.06
2022-08-17T04:28:28.721Z,998.01
2022-08-17T04:29:28.714Z,997.94
2022-08-17T04:30:29.705Z,997.89
2022-08-17T04:31:28.690Z,997.88
2022-08-17T04:33:03.665Z,997.96
2022-08-17T04:33:34.694Z,998.09
2022-08-17T04:34:28.660Z,998.15
2022-08-17T04:35:28.646Z,998.18
2022-08-17T04:36:28.639Z,998.04
2022-08-17T04:37:28.638Z,997.91
2022-08-17T04:38:28.611Z,997.84
2022-08-17T04:39:28.635Z,997.96
2022-08-17T04:40:28.589Z,997.96
2022-08-17T04:41:28.581Z,998.03
2022-08-17T04:42:28.567Z,998.11
2022-08-17T04:43:28.568Z,998.08
2022-08-17T04:44:37.648Z,998.07
2022-08-17T04:45:32.321Z,998.07
2022-08-17T04:46:28.522Z,998.04
2022-08-17T04:47:28.515Z,998.02
2022-08-17T04:48:35.695Z,997.96
2022-08-17T04:49:29.531Z,998.02
2022-08-17T04:50:28.479Z,998.05
2022-08-17T04:51:28.469Z,998.12
2022-08-17T04:52:29.875Z,998.19
2022-08-17T04:53:29.463Z,998.17
2022-08-17T04:54:28.438Z,998.18
2022-08-17T04:55:33.447Z,998.21
2022-08-17T04:56:28.418Z,998.23
2022-08-17T04:57:28.403Z,998.30
2022-08-17T04:58:28.403Z,998.34
2022-08-17T04:59:28.378Z,998.32
2022-08-17T05:00:28.369Z,998.26
2022-08-17T05:01:28.475Z,998.21
2022-08-17T05:02:28.362Z,998.18
2022-08-17T05:03:28.335Z,998.27
2022-08-17T05:04:34.396Z,998.33
2022-08-17T05:05:29.316Z,998.29
2022-08-17T05:06:33.324Z,998.22
2022-08-17T05:07:31.413Z,998.16
2022-08-17T05:08:28.280Z,998.22
2022-08-17T05:09:28.268Z,998.19
2022-08-17T05:10:28.259Z,998.17
2022-08-17T05:11:28.249Z,998.18
2022-08-17T05:12:28.247Z,998.17
2022-08-17T05:13:28.224Z,998.23
2022-08-17T05:14:32.835Z,998.14
2022-08-17T05:15:29.202Z,998.07
2022-08-17T05:16:28.191Z,998.10
2022-08-17T05:17:33.225Z,998.23
2022-08-17T05:18:28.170Z,998.24
2022-08-17T05:19:28.157Z,998.31
2022-08-17T05:20:28.153Z,998.32
2022-08-17T05:21:28.136Z,998.29
2022-08-17T05:22:28.126Z,998.30
2022-08-17T05:23:35.553Z,998.32
2022-08-17T05:24:38.330Z,998.28
2022-08-17T05:25:29.094Z,998.20
2022-08-17T05:26:28.791Z,998.23
2022-08-17T05:27:32.232Z,998.34
2022-08-17T05:28:34.095Z,998.29
2022-08-17T05:29:35.213Z,998.31
2022-08-17T05:30:29.037Z,998.19
2022-08-17T05:31:28.023Z,998.21
2022-08-17T05:32:37.951Z,998.22
2022-08-17T05:33:29.013Z,998.25
2022-08-17T05:34:27.993Z,998.25
2022-08-17T05:35:27.981Z,998.25
2022-08-17T05:36:41.984Z,998.25
2022-08-17T05:37:28.966Z,998.32
2022-08-17T05:38:27.958Z,998.25
2022-08-17T05:39:32.991Z,998.30
2022-08-17T05:40:27.926Z,998.37
2022-08-17T05:41:28.914Z,998.34
2022-08-17T05:42:27.904Z,998.38
2022-08-17T05:43:27.902Z,998.37
2022-08-17T05:44:27.896Z,998.31
2022-08-17T05:45:54.257Z,998.28
2022-08-17T05:46:28.860Z,998.26
2022-08-17T05:47:27.848Z,998.25
2022-08-17T05:48:35.677Z,998.23
2022-08-17T05:49:28.825Z,998.25
2022-08-17T05:50:32.837Z,998.14
2022-08-17T05:51:27.814Z,998.21
2022-08-17T05:52:27.793Z,998.13
2022-08-17T05:53:27.795Z,998.16
2022-08-17T05:54:27.819Z,998.07
2022-08-17T05:55:27.769Z,998.04
2022-08-17T05:56:30.419Z,998.14
2022-08-17T05:57:27.766Z,998.08
2022-08-17T05:58:27.735Z,998.14
2022-08-17T05:59:27.723Z,998.02
2022-08-17T06:00:30.694Z,998.04
2022-08-17T06:01:32.772Z,998.01
2022-08-17T06:02:27.694Z,998.00
2022-08-17T06:03:27.829Z,997.99
2022-08-17T06:04:27.666Z,998.00
2022-08-17T06:05:27.661Z,998.03
2022-08-17T06:06:31.196Z,998.02
2022-08-17T06:07:27.628Z,998.10
2022-08-17T06:08:27.690Z,998.13
2022-08-17T06:09:33.008Z,998.13
2022-08-17T06:10:28.670Z,998.10
2022-08-17T06:11:27.590Z,998.10
2022-08-17T06:12:32.600Z,998.09
2022-08-17T06:13:27.571Z,998.09
2022-08-17T06:14:27.552Z,998.08
2022-08-17T06:15:27.538Z,998.08
2022-08-17T06:16:34.091Z,998.05
2022-08-17T06:17:28.514Z,998.05
2022-08-17T06:18:27.527Z,998.07
2022-08-17T06:19:27.500Z,998.06
2022-08-17T06:20:27.575Z,998.03
2022-08-17T06:21:31.952Z,998.06
2022-08-17T06:22:27.480Z,998.08
2022-08-17T06:23:32.555Z,998.11
2022-08-17T06:24:27.477Z,998.04
2022-08-17T06:25:27.426Z,998.08
2022-08-17T06:26:27.584Z,998.08
2022-08-17T06:27:28.403Z,998.08
2022-08-17T06:28:27.422Z,998.06
2022-08-17T06:29:27.390Z,997.96
2022-08-17T06:30:27.498Z,997.98
2022-08-17T06:31:27.375Z,998.04
2022-08-17T06:32:27.350Z,998.01
2022-08-17T06:33:27.340Z,997.99
2022-08-17T06:34:32.360Z,998.13
2022-08-17T06:35:32.090Z,998.14
2022-08-17T06:36:28.313Z,998.13
2022-08-17T06:37:27.295Z,998.14
2022-08-17T06:38:36.965Z,998.27
2022-08-17T06:39:31.268Z,998.31
2022-08-17T06:40:27.328Z,998.39
2022-08-17T06:41:27.248Z,998.34
2022-08-17T06:43:02.927Z,998.43
2022-08-17T06:43:28.226Z,998.39
2022-08-17T06:44:49.804Z,998.48
2022-08-17T06:45:33.457Z,998.40
2022-08-17T06:46:27.212Z,998.42
2022-08-17T06:47:28.495Z,998.44
2022-08-17T06:48:27.176Z,998.41
2022-08-17T06:49:27.170Z,998.46
2022-08-17T06:50:27.287Z,998.44
2022-08-17T06:51:27.147Z,998.37
2022-08-17T06:52:46.007Z,998.38
2022-08-17T06:53:28.117Z,998.47
2022-08-17T06:54:27.116Z,998.38
2022-08-17T06:55:27.100Z,998.39
2022-08-17T06:56:53.263Z,998.39
2022-08-17T06:57:28.071Z,998.32
2022-08-17T06:58:29.822Z,998.37
2022-08-17T06:59:54.343Z,998.24
2022-08-17T07:00:28.128Z,998.27
2022-08-17T07:01:27.181Z,998.28
2022-08-17T07:02:29.506Z,998.31
2022-08-17T07:03:28.769Z,998.29
2022-08-17T07:04:27.430Z,998.36
2022-08-17T07:05:27.236Z,998.35
2022-08-17T07:06:27.248Z,998.39
2022-08-17T07:07:32.120Z,998.37
2022-08-17T07:08:30.576Z,998.49
2022-08-17T07:09:27.946Z,998.55
2022-08-17T07:10:26.935Z,998.61
2022-08-17T07:11:26.916Z,998.68
2022-08-17T07:12:26.907Z,998.66
2022-08-17T07:13:26.896Z,998.67
2022-08-17T07:14:26.894Z,998.70
2022-08-17T07:15:26.871Z,998.72
2022-08-17T07:16:26.863Z,998.67
2022-08-17T07:17:46.508Z,998.61
2022-08-17T07:18:32.861Z,998.68
2022-08-17T07:19:26.841Z,998.64
2022-08-17T07:20:26.817Z,998.64
2022-08-17T07:21:26.937Z,998.51
2022-08-17T07:22:26.794Z,998.49
2022-08-17T07:23:26.784Z,998.46
2022-08-17T07:24:30.109Z,998.41
2022-08-17T07:25:26.777Z,998.43
2022-08-17T07:26:26.749Z,998.46
2022-08-17T07:27:26.737Z,998.46
2022-08-17T07:28:26.731Z,998.43
2022-08-17T07:29:31.747Z,998.46
2022-08-17T07:30:26.711Z,998.49
2022-08-17T07:31:26.709Z,998.49
2022-08-17T07:32:26.682Z,998.42
2022-08-17T07:33:26.671Z,998.45
2022-08-17T07:34:26.693Z,998.50
2022-08-17T07:35:26.648Z,998.57
2022-08-17T07:36:30.126Z,998.55
2022-08-17T07:37:26.627Z,998.60
2022-08-17T07:38:27.142Z,998.62
2022-08-17T07:39:26.631Z,998.66
2022-08-17T07:40:31.689Z,998.67
2022-08-17T07:41:26.593Z,998.77
2022-08-17T07:42:27.572Z,998.80
2022-08-17T07:43:26.565Z,998.82
2022-08-17T07:44:26.561Z,998.77
2022-08-17T07:45:26.564Z,998.74
2022-08-17T07:46:26.526Z,998.68
2022-08-17T07:47:26.523Z,998.66
2022-08-17T07:48:26.506Z,998.68
2022-08-17T07:49:26.506Z,998.70
2022-08-17T07:50:27.621Z,998.64
2022-08-17T07:51:31.505Z,998.69
2022-08-17T07:52:50.986Z,998.62
2022-08-17T07:53:27.452Z,998.64
2022-08-17T07:54:26.447Z,998.61
2022-08-17T07:55:26.427Z,998.52
2022-08-17T07:56:26.416Z,998.49
2022-08-17T07:57:29.993Z,998.41
2022-08-17T07:58:26.402Z,998.40
2022-08-17T07:59:33.220Z,998.34
2022-08-17T08:00:31.737Z,998.34
2022-08-17T08:01:27.375Z,998.41
2022-08-17T08:02:33.885Z,998.44
2022-08-17T08:03:26.402Z,998.53
2022-08-17T08:04:49.905Z,998.61
2022-08-17T08:05:49.765Z,998.56
2022-08-17T08:06:27.303Z,998.60
2022-08-17T08:07:26.294Z,998.59
2022-08-17T08:08:26.283Z,998.58
2022-08-17T08:09:26.281Z,998.67
2022-08-17T08:10:26.260Z,998.72
2022-08-17T08:11:26.251Z,998.73
2022-08-17T08:12:32.689Z,998.79
2022-08-17T08:13:32.366Z,998.75
2022-08-17T08:14:28.258Z,998.74
2022-08-17T08:15:26.216Z,998.72
2022-08-17T08:16:26.194Z,998.80
2022-08-17T08:17:26.183Z,998.81
2022-08-17T08:18:53.706Z,998.81
2022-08-17T08:19:27.160Z,998.77
2022-08-17T08:20:51.106Z,998.85
2022-08-17T08:21:27.136Z,998.74
2022-08-17T08:22:26.129Z,998.76
2022-08-17T08:23:26.116Z,998.80
2022-08-17T08:24:31.237Z,998.77
2022-08-17T08:25:26.102Z,998.78
2022-08-17T08:26:26.084Z,998.82
2022-08-17T08:27:26.069Z,998.80
2022-08-17T08:28:26.071Z,998.76
2022-08-17T08:29:26.048Z,998.90
2022-08-17T08:30:26.052Z,998.94
2022-08-17T08:31:26.029Z,998.91
2022-08-17T08:32:26.016Z,998.82
2022-08-17T08:33:26.003Z,998.87
2022-08-17T08:34:53.467Z,998.78
2022-08-17T08:35:32.035Z,998.78
2022-08-17T08:37:14.187Z,998.76
2022-08-17T08:37:34.498Z,998.88
2022-08-17T08:38:26.947Z,998.85
2022-08-17T08:39:26.031Z,998.81
2022-08-17T08:40:25.938Z,998.85
2022-08-17T08:41:25.913Z,998.79
2022-08-17T08:42:25.911Z,998.91
2022-08-17T08:43:25.896Z,998.94
2022-08-17T08:45:00.244Z,998.82
2022-08-17T08:45:26.881Z,998.75
2022-08-17T08:46:30.884Z,998.70
2022-08-17T08:47:25.867Z,998.79
2022-08-17T08:48:53.391Z,998.78
2022-08-17T08:49:59.193Z,998.81
2022-08-17T08:50:36.877Z,998.75
2022-08-17T08:51:26.813Z,998.67
2022-08-17T08:52:25.796Z,998.67
2022-08-17T08:53:25.783Z,998.63
2022-08-17T08:54:26.555Z,998.67
2022-08-17T08:55:25.779Z,998.67
2022-08-17T08:56:25.758Z,998.69
2022-08-17T08:57:33.958Z,998.80
2022-08-17T08:58:31.467Z,998.99
2022-08-17T08:59:26.724Z,999.01
2022-08-17T09:00:25.730Z,999.07
2022-08-17T09:01:25.740Z,999.00
2022-08-17T09:02:25.683Z,998.97
2022-08-17T09:03:43.838Z,998.91
2022-08-17T09:04:26.661Z,998.90
2022-08-17T09:05:25.665Z,998.80
2022-08-17T09:06:37.793Z,998.88
2022-08-17T09:07:26.628Z,998.84
2022-08-17T09:08:30.639Z,998.77
2022-08-17T09:09:25.610Z,998.75
2022-08-17T09:10:25.594Z,998.72
2022-08-17T09:11:25.592Z,998.64
2022-08-17T09:12:25.572Z,998.67
2022-08-17T09:13:25.564Z,998.65
2022-08-17T09:14:28.742Z,998.52
2022-08-17T09:15:25.542Z,998.57
2022-08-17T09:16:25.537Z,998.62
2022-08-17T09:17:25.516Z,998.67
2022-08-17T09:19:02.256Z,998.76
2022-08-17T09:19:31.516Z,998.74
2022-08-17T09:20:28.067Z,998.58
2022-08-17T09:21:25.484Z,998.53
2022-08-17T09:22:25.464Z,998.65
2022-08-17T09:23:25.457Z,998.70
2022-08-17T09:24:25.439Z,998.77
2022-08-17T09:25:25.432Z,998.78
2022-08-17T09:26:25.440Z,998.94
2022-08-17T09:27:25.408Z,998.97
2022-08-17T09:28:25.395Z,999.01
2022-08-17T09:29:25.400Z,999.02
2022-08-17T09:30:30.400Z,999.08
2022-08-17T09:31:27.703Z,999.18
2022-08-17T09:32:25.351Z,999.17
2022-08-17T09:33:25.342Z,999.10
2022-08-17T09:34:32.075Z,999.12
2022-08-17T09:35:32.937Z,999.21
2022-08-17T09:36:26.321Z,999.27
2022-08-17T09:37:25.323Z,999.32
2022-08-17T09:38:28.109Z,999.27
2022-08-17T09:39:26.353Z,999.20
2022-08-17T09:40:25.269Z,999.11
2022-08-17T09:41:30.370Z,999.14
2022-08-17T09:42:25.244Z,999.18
2022-08-17T09:43:25.241Z,999.17
2022-08-17T09:44:25.224Z,999.13
2022-08-17T09:45:25.213Z,999.09
2022-08-17T09:46:25.211Z,999.08
2022-08-17T09:47:25.188Z,999.00
2022-08-17T09:48:25.177Z,999.03
2022-08-17T09:49:25.465Z,999.17
2022-08-17T09:51:03.184Z,999.22
2022-08-17T09:51:26.158Z,999.21
2022-08-17T09:52:30.155Z,999.30
2022-08-17T09:53:25.125Z,999.27
2022-08-17T09:54:38.635Z,999.28
2022-08-17T09:55:26.101Z,999.36
2022-08-17T09:56:25.097Z,999.34
2022-08-17T09:57:32.671Z,999.36
2022-08-17T09:58:29.068Z,999.28
2022-08-17T09:59:25.057Z,999.24
2022-08-17T10:00:25.062Z,999.23
2022-08-17T10:01:25.148Z,999.29
2022-08-17T10:02:25.023Z,999.39
2022-08-17T10:03:30.034Z,999.46
2022-08-17T10:04:29.465Z,999.40
2022-08-17T10:05:24.995Z,999.44
2022-08-17T10:06:24.986Z,999.47
2022-08-17T10:07:25.028Z,999.52
2022-08-17T10:08:24.955Z,999.44
2022-08-17T10:09:24.945Z,999.54
2022-08-17T10:10:24.935Z,999.43
2022-08-17T10:11:33.815Z,999.52
2022-08-17T10:12:30.191Z,999.51
2022-08-17T10:13:24.900Z,999.65
2022-08-17T10:14:36.455Z,999.54
2022-08-17T10:15:25.878Z,999.54
2022-08-17T10:16:24.875Z,999.50
2022-08-17T10:17:24.857Z,999.52
2022-08-17T10:18:24.900Z,999.54
2022-08-17T10:19:25.830Z,999.53
2022-08-17T10:20:24.818Z,999.56
2022-08-17T10:21:24.828Z,999.59
2022-08-17T10:22:34.850Z,999.53
2022-08-17T10:23:25.786Z,999.58
2022-08-17T10:24:24.774Z,999.59
2022-08-17T10:25:48.595Z,999.65
2022-08-17T10:26:25.760Z,999.66
2022-08-17T10:27:24.787Z,999.71
2022-08-17T10:28:29.568Z,999.73
2022-08-17T10:29:25.725Z,999.74
2022-08-17T10:30:24.710Z,999.76
2022-08-17T10:31:40.057Z,999.83
2022-08-17T10:32:25.682Z,999.88
2022-08-17T10:33:24.672Z,999.85
2022-08-17T10:34:24.679Z,999.81
2022-08-17T10:35:24.686Z,999.85
2022-08-17T10:36:29.673Z,999.81
2022-08-17T10:37:24.677Z,999.85
2022-08-17T10:38:24.856Z,999.81
2022-08-17T10:39:24.606Z,999.81
2022-08-17T10:40:24.713Z,999.76
2022-08-17T10:41:24.603Z,999.79
2022-08-17T10:42:30.834Z,999.71
2022-08-17T10:43:25.559Z,999.78
2022-08-17T10:44:40.233Z,999.81
2022-08-17T10:45:25.559Z,999.79
2022-08-17T10:46:30.324Z,999.70
2022-08-17T10:47:42.295Z,999.67
2022-08-17T10:48:25.507Z,999.70
2022-08-17T10:49:24.503Z,999.77
2022-08-17T10:50:24.482Z,999.77
2022-08-17T10:51:24.489Z,999.75
2022-08-17T10:52:25.045Z,999.70
2022-08-17T10:53:24.448Z,999.73
2022-08-17T10:54:24.449Z,999.69
2022-08-17T10:55:24.427Z,999.58
2022-08-17T10:56:24.416Z,999.66
2022-08-17T10:57:24.415Z,999.69
2022-08-17T10:58:29.419Z,999.74
2022-08-17T10:59:24.387Z,999.68
2022-08-17T11:00:27.621Z,999.72
2022-08-17T11:01:24.403Z,999.69
2022-08-17T11:02:24.360Z,999.79
2022-08-17T11:03:24.341Z,999.71
2022-08-17T11:04:25.071Z,999.72
2022-08-17T11:05:24.319Z,999.79
2022-08-17T11:06:24.303Z,999.79
2022-08-17T11:07:24.303Z,999.83
2022-08-17T11:08:24.307Z,999.80
2022-08-17T11:09:29.295Z,999.80
2022-08-17T11:10:24.271Z,999.83
2022-08-17T11:11:24.250Z,999.78
2022-08-17T11:12:24.253Z,999.85
2022-08-17T11:13:24.229Z,999.95
2022-08-17T11:14:24.212Z,999.89
2022-08-17T11:15:24.204Z,999.90
2022-08-17T11:16:24.194Z,999.90
2022-08-17T11:17:24.195Z,999.97
2022-08-17T11:18:24.212Z,999.96
2022-08-17T11:19:24.159Z,999.97
2022-08-17T11:20:29.194Z,999.98
2022-08-17T11:21:24.136Z,999.99
2022-08-17T11:22:24.139Z,1000.01
2022-08-17T11:23:24.128Z,999.99
2022-08-17T11:24:24.117Z,999.97
2022-08-17T11:25:24.094Z,999.98
2022-08-17T11:26:24.079Z,999.93
2022-08-17T11:27:24.092Z,999.85
2022-08-17T11:28:24.058Z,999.77
2022-08-17T11:29:24.663Z,999.77
2022-08-17T11:30:24.037Z,999.84
2022-08-17T11:31:38.747Z,999.92
2022-08-17T11:32:25.022Z,999.99
2022-08-17T11:33:24.037Z,1000.00
2022-08-17T11:34:23.991Z,1000.03
2022-08-17T11:35:23.982Z,999.99
2022-08-17T11:36:23.973Z,1000.04
2022-08-17T11:37:23.972Z,999.95
2022-08-17T11:38:23.951Z,999.97
2022-08-17T11:39:23.938Z,1000.01
2022-08-17T11:40:23.925Z,1000.00
2022-08-17T11:41:23.917Z,999.97
2022-08-17T11:42:28.934Z,999.99
2022-08-17T11:43:25.673Z,1000.01
2022-08-17T11:44:23.880Z,1000.05
2022-08-17T11:45:32.263Z,1000.05
2022-08-17T11:46:24.861Z,999.97
2022-08-17T11:47:23.860Z,1000.00
2022-08-17T11:48:28.334Z,999.95
2022-08-17T11:49:24.827Z,999.95
2022-08-17T11:50:27.679Z,999.85
2022-08-17T11:51:23.807Z,999.87
2022-08-17T11:52:23.809Z,999.88
2022-08-17T11:53:28.812Z,999.89
2022-08-17T11:54:33.329Z,999.84
2022-08-17T11:55:35.466Z,999.79
2022-08-17T11:56:24.768Z,999.92
2022-08-17T11:57:23.760Z,999.90
2022-08-17T11:58:23.731Z,999.84
2022-08-17T11:59:23.757Z,999.80
2022-08-17T12:00:23.711Z,999.84
2022-08-17T12:01:23.697Z,999.90
2022-08-17T12:02:23.686Z,999.85
2022-08-17T12:03:23.776Z,999.86
2022-08-17T12:04:28.799Z,999.87
2022-08-17T12:05:23.657Z,999.87
2022-08-17T12:06:23.647Z,999.94
2022-08-17T12:07:24.644Z,999.89
2022-08-17T12:08:23.622Z,999.97
2022-08-17T12:09:23.612Z,999.95
2022-08-17T12:10:23.600Z,999.93
2022-08-17T12:11:56.359Z,999.91
2022-08-17T12:12:24.587Z,999.95
2022-08-17T12:13:23.569Z,999.93
2022-08-17T12:14:45.075Z,999.90
2022-08-17T12:15:29.571Z,999.94
2022-08-17T12:16:23.535Z,999.83
2022-08-17T12:17:41.613Z,999.89
2022-08-17T12:18:24.518Z,999.78
2022-08-17T12:19:23.506Z,999.76
2022-08-17T12:20:23.497Z,999.74
2022-08-17T12:21:23.486Z,999.73
2022-08-17T12:22:23.480Z,999.78
2022-08-17T12:23:23.467Z,999.72
2022-08-17T12:24:23.449Z,999.73
2022-08-17T12:25:23.443Z,999.76
2022-08-17T12:26:28.451Z,999.74
2022-08-17T12:28:04.109Z,999.69
2022-08-17T12:28:24.406Z,999.69
2022-08-17T12:29:38.398Z,999.67
2022-08-17T12:30:24.384Z,999.69
2022-08-17T12:31:23.376Z,999.73
2022-08-17T12:32:23.363Z,999.71
2022-08-17T12:33:28.055Z,999.73
2022-08-17T12:34:24.339Z,999.61
2022-08-17T12:35:23.336Z,999.59
2022-08-17T12:36:23.318Z,999.66
2022-08-17T12:37:28.331Z,999.58
2022-08-17T12:38:32.447Z,999.61
2022-08-17T12:39:24.946Z,999.57
2022-08-17T12:40:23.277Z,999.60
2022-08-17T12:41:23.267Z,999.50
2022-08-17T12:42:23.253Z,999.47
2022-08-17T12:43:23.253Z,999.40
2022-08-17T12:44:23.236Z,999.40
2022-08-17T12:45:23.223Z,999.35
2022-08-17T12:46:23.209Z,999.38
2022-08-17T12:47:23.391Z,999.43
2022-08-17T12:48:28.225Z,999.45
2022-08-17T12:49:23.182Z,999.48
2022-08-17T12:50:29.679Z,999.50
2022-08-17T12:51:24.160Z,999.42
2022-08-17T12:52:23.142Z,999.43
2022-08-17T12:53:23.142Z,999.47
2022-08-17T12:54:23.138Z,999.45
2022-08-17T12:55:23.111Z,999.47
2022-08-17T12:56:23.104Z,999.55
2022-08-17T12:57:23.113Z,999.42
2022-08-17T12:58:23.095Z,999.35
2022-08-17T12:59:29.929Z,999.35
2022-08-17T13:00:23.062Z,999.26
2022-08-17T13:01:23.103Z,999.35
2022-08-17T13:02:23.050Z,999.29
2022-08-17T13:03:23.047Z,999.32
2022-08-17T13:04:23.011Z,999.26
2022-08-17T13:05:23.001Z,999.23
2022-08-17T13:06:22.993Z,999.23
2022-08-17T13:07:22.985Z,999.27
2022-08-17T13:08:22.994Z,999.28
2022-08-17T13:09:23.010Z,999.25
2022-08-17T13:10:32.875Z,999.29
2022-08-17T13:11:22.938Z,999.28
2022-08-17T13:12:22.924Z,999.22
2022-08-17T13:13:22.935Z,999.23
2022-08-17T13:14:22.906Z,999.26
2022-08-17T13:15:22.896Z,999.25
2022-08-17T13:16:22.881Z,999.24
2022-08-17T13:17:22.869Z,999.27
2022-08-17T13:18:22.865Z,999.26
2022-08-17T13:19:39.979Z,999.25
2022-08-17T13:20:23.834Z,999.14
2022-08-17T13:21:27.851Z,999.15
2022-08-17T13:22:22.818Z,999.08
2022-08-17T13:23:22.813Z,999.19
2022-08-17T13:24:22.803Z,999.16
2022-08-17T13:25:22.787Z,999.16
2022-08-17T13:26:22.771Z,999.13
2022-08-17T13:27:22.760Z,999.13
2022-08-17T13:28:35.631Z,999.08
2022-08-17T13:29:23.750Z,999.09
2022-08-17T13:30:22.748Z,999.02
2022-08-17T13:31:22.738Z,999.03
2022-08-17T13:32:27.728Z,998.93
2022-08-17T13:33:22.693Z,998.92
2022-08-17T13:34:23.890Z,998.98
2022-08-17T13:35:29.685Z,999.02
2022-08-17T13:36:26.388Z,999.09
2022-08-17T13:37:23.220Z,999.10
2022-08-17T13:38:22.640Z,999.16
2022-08-17T13:39:22.641Z,999.22
2022-08-17T13:40:22.623Z,999.22
2022-08-17T13:41:22.629Z,999.25
2022-08-17T13:42:22.631Z,999.23
2022-08-17T13:43:27.608Z,999.12
2022-08-17T13:44:22.596Z,999.07
2022-08-17T13:45:35.506Z,999.13
2022-08-17T13:46:23.555Z,999.08
2022-08-17T13:47:22.544Z,998.99
2022-08-17T13:48:22.533Z,999.04
2022-08-17T13:49:22.532Z,999.01
2022-08-17T13:50:22.513Z,998.98
2022-08-17T13:51:22.507Z,998.94
2022-08-17T13:52:25.635Z,998.94
2022-08-17T13:53:22.477Z,998.92
2022-08-17T13:54:27.508Z,998.82
2022-08-17T13:55:22.461Z,998.88
2022-08-17T13:56:38.830Z,998.83
2022-08-17T13:57:23.435Z,998.88
2022-08-17T13:58:22.424Z,998.82
2022-08-17T13:59:36.289Z,998.81
2022-08-17T14:00:23.413Z,998.79
2022-08-17T14:01:22.430Z,998.81
2022-08-17T14:02:22.382Z,998.82
2022-08-17T14:03:22.400Z,998.80
2022-08-17T14:04:22.364Z,998.84
2022-08-17T14:05:27.421Z,998.88
2022-08-17T14:06:52.448Z,998.88
2022-08-17T14:07:23.326Z,998.87
2022-08-17T14:08:22.323Z,998.84
2022-08-17T14:09:22.317Z,998.75
2022-08-17T14:10:22.309Z,998.75
2022-08-17T14:11:22.292Z,998.71
2022-08-17T14:12:22.275Z,998.68
2022-08-17T14:13:22.265Z,998.77
2022-08-17T14:14:22.253Z,998.70
2022-08-17T14:15:22.251Z,998.69
2022-08-17T14:16:27.255Z,998.70
2022-08-17T14:17:22.219Z,998.71
2022-08-17T14:18:31.204Z,998.67
2022-08-17T14:19:23.198Z,998.63
2022-08-17T14:20:22.201Z,998.52
2022-08-17T14:21:22.178Z,998.54
2022-08-17T14:22:22.167Z,998.50
2022-08-17T14:23:22.155Z,998.45
2022-08-17T14:24:22.146Z,998.42
2022-08-17T14:25:22.403Z,998.47
2022-08-17T14:26:22.124Z,998.51
2022-08-17T14:27:27.136Z,998.56
2022-08-17T14:28:22.102Z,998.51
2022-08-17T14:29:22.092Z,998.48
2022-08-17T14:30:22.092Z,998.50
2022-08-17T14:31:22.082Z,998.51
2022-08-17T14:32:22.070Z,998.48
2022-08-17T14:33:22.049Z,998.50
2022-08-17T14:34:22.040Z,998.44
2022-08-17T14:35:22.035Z,998.38
2022-08-17T14:36:22.021Z,998.42
2022-08-17T14:37:22.006Z,998.39
2022-08-17T14:38:27.017Z,998.39
2022-08-17T14:39:21.990Z,998.47
2022-08-17T14:40:22.028Z,998.46
2022-08-17T14:41:22.454Z,998.40
2022-08-17T14:42:21.951Z,998.43
2022-08-17T14:43:21.936Z,998.44
2022-08-17T14:44:21.939Z,998.41
2022-08-17T14:45:29.830Z,998.39
2022-08-17T14:46:22.904Z,998.38
2022-08-17T14:47:21.892Z,998.40
2022-08-17T14:48:21.888Z,998.44
2022-08-17T14:49:26.906Z,998.42
2022-08-17T14:50:21.863Z,998.39
2022-08-17T14:51:21.849Z,998.45
2022-08-17T14:52:22.030Z,998.44
2022-08-17T14:53:21.828Z,998.50
2022-08-17T14:54:33.041Z,998.43
2022-08-17T14:55:22.817Z,998.45
2022-08-17T14:56:21.797Z,998.41
2022-08-17T14:57:33.013Z,998.37
2022-08-17T14:58:22.771Z,998.36
2022-08-17T14:59:21.761Z,998.37
2022-08-17T15:00:26.786Z,998.35
2022-08-17T15:01:21.801Z,998.37
2022-08-17T15:02:21.733Z,998.32
2022-08-17T15:03:22.732Z,998.32
2022-08-17T15:04:21.705Z,998.40
2022-08-17T15:05:21.703Z,998.39
2022-08-17T15:06:21.685Z,998.40
2022-08-17T15:07:21.671Z,998.40
2022-08-17T15:08:22.694Z,998.38
2022-08-17T15:09:21.661Z,998.38
2022-08-17T15:10:21.655Z,998.42
2022-08-17T15:11:26.648Z,998.41
2022-08-17T15:12:21.618Z,998.44
2022-08-17T15:13:21.609Z,998.46
2022-08-17T15:14:21.596Z,998.38
2022-08-17T15:15:21.603Z,998.40
2022-08-17T15:16:21.609Z,998.41
2022-08-17T15:17:21.560Z,998.35
2022-08-17T15:18:21.554Z,998.34
2022-08-17T15:19:21.538Z,998.33
2022-08-17T15:20:21.538Z,998.36
2022-08-17T15:21:21.518Z,998.33
2022-08-17T15:22:26.534Z,998.28
2022-08-17T15:23:21.496Z,998.31
2022-08-17T15:24:21.485Z,998.25
2022-08-17T15:25:21.487Z,998.32
2022-08-17T15:26:26.009Z,998.30
2022-08-17T15:27:25.787Z,998.27
2022-08-17T15:28:22.442Z,998.28
2022-08-17T15:29:21.434Z,998.27
2022-08-17T15:30:21.434Z,998.21
2022-08-17T15:31:31.969Z,998.23
2022-08-17T15:32:22.397Z,998.27
2022-08-17T15:33:26.407Z,998.26
2022-08-17T15:34:21.376Z,998.29
2022-08-17T15:35:25.164Z,998.33
2022-08-17T15:36:22.376Z,998.31
2022-08-17T15:37:21.410Z,998.40
2022-08-17T15:38:21.333Z,998.36
2022-08-17T15:39:21.320Z,998.36
2022-08-17T15:40:21.323Z,998.32
2022-08-17T15:41:21.299Z,998.29
2022-08-17T15:42:21.289Z,998.30
2022-08-17T15:43:26.672Z,998.23
2022-08-17T15:44:32.405Z,998.24
2022-08-17T15:45:22.378Z,998.17
2022-08-17T15:46:21.244Z,998.20
2022-08-17T15:47:21.232Z,998.09
2022-08-17T15:48:21.234Z,998.12
2022-08-17T15:49:21.211Z,998.13
2022-08-17T15:50:21.213Z,998.14
2022-08-17T15:51:21.188Z,998.19
2022-08-17T15:52:21.183Z,998.21
2022-08-17T15:53:21.168Z,998.22
2022-08-17T15:54:22.779Z,998.21
2022-08-17T15:55:26.180Z,998.22
2022-08-17T15:56:21.134Z,998.17
2022-08-17T15:57:21.122Z,998.15
2022-08-17T15:58:21.114Z,998.18
2022-08-17T15:59:22.098Z,998.13
2022-08-17T16:00:21.110Z,998.19
2022-08-17T16:01:45.449Z,998.17
2022-08-17T16:03:13.486Z,998.15
2022-08-17T16:04:01.452Z,998.19
2022-08-17T16:04:30.383Z,998.21
2022-08-17T16:05:24.240Z,998.27
2022-08-17T16:06:26.048Z,998.29
2022-08-17T16:07:26.411Z,998.19
2022-08-17T16:08:22.003Z,998.17
2022-08-17T16:09:21.051Z,998.24
2022-08-17T16:10:21.114Z,998.24
2022-08-17T16:11:20.974Z,998.26
2022-08-17T16:12:20.977Z,998.16
2022-08-17T16:13:20.955Z,998.17
2022-08-17T16:14:20.944Z,998.26
2022-08-17T16:15:20.940Z,998.19
2022-08-17T16:16:20.932Z,998.19
2022-08-17T16:17:49.380Z,998.16
2022-08-17T16:18:22.072Z,998.17
2022-08-17T16:19:20.885Z,998.13
2022-08-17T16:20:21.139Z,998.17
2022-08-17T16:21:20.861Z,998.07
2022-08-17T16:22:20.858Z,998.19
2022-08-17T16:23:20.841Z,998.14
2022-08-17T16:24:20.830Z,998.14
2022-08-17T16:25:20.994Z,998.16
2022-08-17T16:26:20.807Z,998.18
2022-08-17T16:27:20.798Z,998.20
2022-08-17T16:28:35.592Z,998.16